| Date | Time | Temp. (oF) | Dew Point (oF) | Rel. Hum. (%) | Press. (in.) | Wind Dir. | Wind Speed (mph) | Hourly Rainfall (in.) |
|
|---|---|---|---|---|---|---|---|---|---|
| 1 | 10/19 | 00:00 | 37 | 34 | 92 | 30.36 | SSW | 1 | 0.00 |
| 2 | 10/18 | 23:00 | 38 | 34 | 88 | 30.37 | SSW | 1 | 0.00 |
| 3 | 10/18 | 22:00 | 40 | 35 | 83 | 30.36 | SSW | 2 | 0.00 |
| 4 | 10/18 | 21:00 | 41 | 33 | 75 | 30.36 | SE | 2 | 0.00 |
| 5 | 10/18 | 20:00 | 44 | 32 | 65 | 30.36 | SE | 3 | 0.00 |
| 6 | 10/18 | 19:00 | 47 | 29 | 51 | 30.35 | WNW | 4 | 0.00 |
| 7 | 10/18 | 18:00 | 52 | 28 | 41 | 30.34 | WNW | 2 | 0.00 |
| 8 | 10/18 | 17:00 | 54 | 29 | 39 | 30.33 | NNW | 6 | 0.00 |
| 9 | 10/18 | 16:00 | 54 | 30 | 40 | 30.34 | SSE | 9 | 0.00 |
| 10 | 10/18 | 15:00 | 54 | 30 | 40 | 30.35 | WSW | 9 | 0.00 |
| 11 | 10/18 | 14:00 | 53 | 29 | 41 | 30.38 | SW | 3 | 0.00 |
| 12 | 10/18 | 13:00 | 52 | 30 | 43 | 30.39 | NW | 10 | 0.00 |
| 13 | 10/18 | 12:00 | 50 | 29 | 45 | 30.41 | WSW | 5 | 0.00 |
| 14 | 10/18 | 11:00 | 48 | 28 | 46 | 30.40 | NNW | 9 | 0.00 |
| 15 | 10/18 | 10:00 | 46 | 27 | 48 | 30.40 | NW | 8 | 0.00 |
| 16 | 10/18 | 09:00 | 45 | 31 | 58 | 30.38 | WNW | 10 | 0.00 |
| 17 | 10/18 | 08:00 | 41 | 29 | 63 | 30.35 | NW | 6 | 0.00 |
| 18 | 10/18 | 07:00 | 40 | 29 | 66 | 30.33 | SSW | 2 | 0.00 |
| 19 | 10/18 | 06:00 | 40 | 29 | 65 | 30.31 | W | 3 | 0.00 |
| 20 | 10/18 | 05:00 | 41 | 27 | 58 | 30.30 | WNW | 3 | 0.00 |
| 21 | 10/18 | 04:00 | 41 | 27 | 58 | 30.27 | WNW | 5 | 0.00 |
| 22 | 10/18 | 03:00 | 44 | 29 | 56 | 30.27 | WNW | 2 | 0.00 |
| 23 | 10/18 | 02:00 | 45 | 29 | 55 | 30.25 | WNW | 5 | 0.00 |
| 24 | 10/18 | 01:00 | 46 | 30 | 55 | 30.23 | NW | 6 | 0.00 |